PWSweather.com
Personal Weather Stations
Station Observations
KMIEASTT1
Tawas Bay, East Tawas, MI 48730

Tawas BayEast Tawas, MI 48730

Lat: 44.28, Lon: -83.48

Elevation: 600

Station Type: Davis VantagePro

http://www.tawasbayweather.com

High Low Average
Temperature 32.7°F0.4°C 24.2°F-4.3°C 28.5°F-1.9°C
Dew Point 30.1°F-1.1°C 18.0°F-7.8°C 24.5°F-4.2°C
Winds 22.0 mph 35.4 kmh Calm Calm 11.0 mph S17.7 kmh S
Wind Gusts 26.0 mph41.8 kmh 1.0 mph1.6 kmh 15.0 mph24.1 kmh
Humidity 90% 77% 85%
Pressure 30.34 in1027.4 mb 29.84 in1010.5 mb -
Precipitation 0.00 in0.0 mm - -
Hour Temp Dew Point Humidity Winds Wind Gusts Pressure Precip Precip Rate Daily Precip Total
12:01 AM 24.9°F-3.9°C 20.5°F-6.4°C 83% 22.0 mph S35.4 kmh S 23.0 mph37.0 kmh 30.34 in1027.4 mb 0.00 in0.0 mm 0.00 in/hr0.0 mm/hr 0.00 in0.0 mm
12:15 AM 24.7°F-4.1°C 20.0°F-6.7°C 82% 19.0 mph S30.6 kmh S 23.0 mph37.0 kmh 30.33 in1027.1 mb 0.00 in0.0 mm 0.00 in/hr0.0 mm/hr 0.00 in0.0 mm
12:30 AM 24.5°F-4.2°C 19.2°F-7.1°C 80% 20.0 mph S32.2 kmh S 24.0 mph38.6 kmh 30.32 in1026.8 mb 0.00 in0.0 mm 0.00 in/hr0.0 mm/hr 0.00 in0.0 mm
01:01 AM 24.2°F-4.3°C 18.0°F-7.8°C 77% 20.0 mph S32.2 kmh S 24.0 mph38.6 kmh 30.30 in1026.1 mb 0.00 in0.0 mm 0.00 in/hr0.0 mm/hr 0.00 in0.0 mm
01:15 AM 24.4°F-4.2°C 19.1°F-7.2°C 80% 20.0 mph S32.2 kmh S 26.0 mph41.8 kmh 30.30 in1026.1 mb 0.00 in0.0 mm 0.00 in/hr0.0 mm/hr 0.00 in0.0 mm
01:30 AM 24.5°F-4.2°C 18.9°F-7.3°C 79% 17.0 mph S27.4 kmh S 22.0 mph35.4 kmh 30.28 in1025.4 mb 0.00 in0.0 mm 0.00 in/hr0.0 mm/hr 0.00 in0.0 mm
01:45 AM 24.6°F-4.1°C 19.9°F-6.7°C 82% 12.0 mph S19.3 kmh S 22.0 mph35.4 kmh 30.28 in1025.4 mb 0.00 in0.0 mm 0.00 in/hr0.0 mm/hr 0.00 in0.0 mm
02:01 AM 24.9°F-3.9°C 20.5°F-6.4°C 83% 9.0 mph SSE14.5 kmh SSE 20.0 mph32.2 kmh 30.26 in1024.7 mb 0.00 in0.0 mm 0.00 in/hr0.0 mm/hr 0.00 in0.0 mm
02:15 AM 24.9°F-3.9°C 20.5°F-6.4°C 83% 15.0 mph SE24.1 kmh SE 22.0 mph35.4 kmh 30.25 in1024.4 mb 0.00 in0.0 mm 0.00 in/hr0.0 mm/hr 0.00 in0.0 mm
02:30 AM 25.1°F-3.8°C 21.0°F-6.1°C 84% 20.0 mph S32.2 kmh S 22.0 mph35.4 kmh 30.25 in1024.4 mb 0.00 in0.0 mm 0.00 in/hr0.0 mm/hr 0.00 in0.0 mm
02:45 AM 25.1°F-3.8°C 20.4°F-6.4°C 82% 18.0 mph SSE29.0 kmh SSE 22.0 mph35.4 kmh 30.24 in1024.0 mb 0.00 in0.0 mm 0.00 in/hr0.0 mm/hr 0.00 in0.0 mm
03:01 AM 25.4°F-3.7°C 21.0°F-6.1°C 83% 17.0 mph S27.4 kmh S 25.0 mph40.2 kmh 30.24 in1024.0 mb 0.00 in0.0 mm 0.00 in/hr0.0 mm/hr 0.00 in0.0 mm
03:15 AM 25.4°F-3.7°C 20.7°F-6.3°C 82% 20.0 mph S32.2 kmh S 21.0 mph33.8 kmh 30.22 in1023.4 mb 0.00 in0.0 mm 0.00 in/hr0.0 mm/hr 0.00 in0.0 mm
03:30 AM 25.3°F-3.7°C 20.9°F-6.2°C 83% 20.0 mph S32.2 kmh S 25.0 mph40.2 kmh 30.21 in1023.0 mb 0.00 in0.0 mm 0.00 in/hr0.0 mm/hr 0.00 in0.0 mm
03:45 AM 25.4°F-3.7°C 21.5°F-5.8°C 85% 15.0 mph S24.1 kmh S 21.0 mph33.8 kmh 30.19 in1022.4 mb 0.00 in0.0 mm 0.00 in/hr0.0 mm/hr 0.00 in0.0 mm
04:01 AM 25.4°F-3.7°C 21.3°F-5.9°C 84% 15.0 mph SSE24.1 kmh SSE 20.0 mph32.2 kmh 30.18 in1022.0 mb 0.00 in0.0 mm 0.00 in/hr0.0 mm/hr 0.00 in0.0 mm
04:15 AM 25.6°F-3.6°C 21.7°F-5.7°C 85% 16.0 mph SSE25.7 kmh SSE 20.0 mph32.2 kmh 30.17 in1021.7 mb 0.00 in0.0 mm 0.00 in/hr0.0 mm/hr 0.00 in0.0 mm
04:30 AM 25.7°F-3.5°C 21.5°F-5.8°C 84% 12.0 mph S19.3 kmh S 18.0 mph29.0 kmh 30.15 in1021.0 mb 0.00 in0.0 mm 0.00 in/hr0.0 mm/hr 0.00 in0.0 mm
04:45 AM 26.0°F-3.3°C 21.8°F-5.7°C 84% 12.0 mph SSE19.3 kmh SSE 20.0 mph32.2 kmh 30.14 in1020.7 mb 0.00 in0.0 mm 0.00 in/hr0.0 mm/hr 0.00 in0.0 mm
05:00 AM 26.1°F-3.3°C 21.7°F-5.7°C 83% 19.0 mph S30.6 kmh S 22.0 mph35.4 kmh 30.14 in1020.7 mb 0.00 in0.0 mm 0.00 in/hr0.0 mm/hr 0.00 in0.0 mm
05:15 AM 26.3°F-3.2°C 22.1°F-5.5°C 84% 17.0 mph S27.4 kmh S 19.0 mph30.6 kmh 30.13 in1020.3 mb 0.00 in0.0 mm 0.00 in/hr0.0 mm/hr 0.00 in0.0 mm
05:30 AM 26.6°F-3.0°C 22.1°F-5.5°C 83% 12.0 mph S19.3 kmh S 20.0 mph32.2 kmh 30.12 in1020.0 mb 0.00 in0.0 mm 0.00 in/hr0.0 mm/hr 0.00 in0.0 mm
05:45 AM 27.0°F-2.8°C 23.1°F-4.9°C 85% 9.0 mph S14.5 kmh S 18.0 mph29.0 kmh 30.11 in1019.6 mb 0.00 in0.0 mm 0.00 in/hr0.0 mm/hr 0.00 in0.0 mm
06:00 AM 26.9°F-2.8°C 22.7°F-5.2°C 84% 15.0 mph S24.1 kmh S 18.0 mph29.0 kmh 30.10 in1019.3 mb 0.00 in0.0 mm 0.00 in/hr0.0 mm/hr 0.00 in0.0 mm
06:15 AM 27.0°F-2.8°C 22.8°F-5.1°C 84% 17.0 mph S27.4 kmh S 20.0 mph32.2 kmh 30.09 in1019.0 mb 0.00 in0.0 mm 0.00 in/hr0.0 mm/hr 0.00 in0.0 mm
06:30 AM 27.2°F-2.7°C 22.4°F-5.3°C 82% 15.0 mph SSW24.1 kmh SSW 22.0 mph35.4 kmh 30.08 in1018.6 mb 0.00 in0.0 mm 0.00 in/hr0.0 mm/hr 0.00 in0.0 mm
06:45 AM 27.2°F-2.7°C 23.0°F-5.0°C 84% 17.0 mph S27.4 kmh S 21.0 mph33.8 kmh 30.06 in1017.9 mb 0.00 in0.0 mm 0.00 in/hr0.0 mm/hr 0.00 in0.0 mm
07:01 AM 27.4°F-2.6°C 23.2°F-4.9°C 84% 15.0 mph S24.1 kmh S 21.0 mph33.8 kmh 30.04 in1017.3 mb 0.00 in0.0 mm 0.00 in/hr0.0 mm/hr 0.00 in0.0 mm
07:15 AM 27.2°F-2.7°C 22.7°F-5.2°C 83% 18.0 mph S29.0 kmh S 21.0 mph33.8 kmh 30.03 in1016.9 mb 0.00 in0.0 mm 0.00 in/hr0.0 mm/hr 0.00 in0.0 mm
07:30 AM 27.2°F-2.7°C 23.3°F-4.8°C 85% 12.0 mph SSW19.3 kmh SSW 18.0 mph29.0 kmh 30.03 in1016.9 mb 0.00 in0.0 mm 0.00 in/hr0.0 mm/hr 0.00 in0.0 mm
07:45 AM 27.3°F-2.6°C 23.1°F-4.9°C 84% 14.0 mph S22.5 kmh S 20.0 mph32.2 kmh 30.02 in1016.6 mb 0.00 in0.0 mm 0.00 in/hr0.0 mm/hr 0.00 in0.0 mm
08:01 AM 27.3°F-2.6°C 23.4°F-4.8°C 85% 16.0 mph S25.7 kmh S 20.0 mph32.2 kmh 30.02 in1016.6 mb 0.00 in0.0 mm 0.00 in/hr0.0 mm/hr 0.00 in0.0 mm
08:15 AM 27.2°F-2.7°C 23.6°F-4.7°C 86% 13.0 mph S20.9 kmh S 17.0 mph27.4 kmh 30.02 in1016.6 mb 0.00 in0.0 mm 0.00 in/hr0.0 mm/hr 0.00 in0.0 mm
08:31 AM 27.4°F-2.6°C 23.2°F-4.9°C 84% 14.0 mph S22.5 kmh S 21.0 mph33.8 kmh 30.01 in1016.3 mb 0.00 in0.0 mm 0.00 in/hr0.0 mm/hr 0.00 in0.0 mm
08:45 AM 27.6°F-2.4°C 24.0°F-4.4°C 86% 11.0 mph S17.7 kmh S 18.0 mph29.0 kmh 30.01 in1016.3 mb 0.00 in0.0 mm 0.00 in/hr0.0 mm/hr 0.00 in0.0 mm
09:00 AM 27.5°F-2.5°C 23.9°F-4.5°C 86% 14.0 mph S22.5 kmh S 20.0 mph32.2 kmh 30.00 in1015.9 mb 0.00 in0.0 mm 0.00 in/hr0.0 mm/hr 0.00 in0.0 mm
09:15 AM 27.6°F-2.4°C 24.0°F-4.4°C 86% 11.0 mph S17.7 kmh S 19.0 mph30.6 kmh 29.99 in1015.6 mb 0.00 in0.0 mm 0.00 in/hr0.0 mm/hr 0.00 in0.0 mm
09:30 AM 27.8°F-2.3°C 24.4°F-4.2°C 87% 12.0 mph S19.3 kmh S 19.0 mph30.6 kmh 29.98 in1015.2 mb 0.00 in0.0 mm 0.00 in/hr0.0 mm/hr 0.00 in0.0 mm
09:45 AM 28.4°F-2.0°C 24.8°F-4.0°C 86% 14.0 mph S22.5 kmh S 19.0 mph30.6 kmh 29.98 in1015.2 mb 0.00 in0.0 mm 0.00 in/hr0.0 mm/hr 0.00 in0.0 mm
10:01 AM 28.1°F-2.2°C 24.5°F-4.2°C 86% 10.0 mph SW16.1 kmh SW 19.0 mph30.6 kmh 29.97 in1014.9 mb 0.00 in0.0 mm 0.00 in/hr0.0 mm/hr 0.00 in0.0 mm
10:15 AM 28.5°F-1.9°C 24.6°F-4.1°C 85% 13.0 mph SSW20.9 kmh SSW 17.0 mph27.4 kmh 29.97 in1014.9 mb 0.00 in0.0 mm 0.00 in/hr0.0 mm/hr 0.00 in0.0 mm
10:30 AM 28.6°F-1.9°C 25.0°F-3.9°C 86% 16.0 mph SSW25.7 kmh SSW 19.0 mph30.6 kmh 29.96 in1014.6 mb 0.00 in0.0 mm 0.00 in/hr0.0 mm/hr 0.00 in0.0 mm
10:45 AM 28.5°F-1.9°C 25.1°F-3.8°C 87% 11.0 mph SW17.7 kmh SW 17.0 mph27.4 kmh 29.96 in1014.6 mb 0.00 in0.0 mm 0.00 in/hr0.0 mm/hr 0.00 in0.0 mm
11:01 AM 29.1°F-1.6°C 25.7°F-3.5°C 87% 7.0 mph SSW11.3 kmh SSW 15.0 mph24.1 kmh 29.95 in1014.2 mb 0.00 in0.0 mm 0.00 in/hr0.0 mm/hr 0.00 in0.0 mm
11:15 AM 29.5°F-1.4°C 26.1°F-3.3°C 87% 8.0 mph SSW12.9 kmh SSW 13.0 mph20.9 kmh 29.95 in1014.2 mb 0.00 in0.0 mm 0.00 in/hr0.0 mm/hr 0.00 in0.0 mm
11:31 AM 29.5°F-1.4°C 25.6°F-3.6°C 85% 7.0 mph SSW11.3 kmh SSW 15.0 mph24.1 kmh 29.94 in1013.9 mb 0.00 in0.0 mm 0.00 in/hr0.0 mm/hr 0.00 in0.0 mm
11:45 AM 29.8°F-1.2°C 25.9°F-3.4°C 85% 9.0 mph SW14.5 kmh SW 13.0 mph20.9 kmh 29.92 in1013.2 mb 0.00 in0.0 mm 0.00 in/hr0.0 mm/hr 0.00 in0.0 mm
12:01 PM 29.5°F-1.4°C 25.6°F-3.6°C 85% 10.0 mph SSW16.1 kmh SSW 14.0 mph22.5 kmh 29.92 in1013.2 mb 0.00 in0.0 mm 0.00 in/hr0.0 mm/hr 0.00 in0.0 mm
12:15 PM 30.2°F-1.0°C 26.2°F-3.2°C 85% 8.0 mph SSW12.9 kmh SSW 11.0 mph17.7 kmh 29.90 in1012.5 mb 0.00 in0.0 mm 0.00 in/hr0.0 mm/hr 0.00 in0.0 mm
12:30 PM 30.6°F-0.8°C 26.6°F-3.0°C 85% 9.0 mph SW14.5 kmh SW 13.0 mph20.9 kmh 29.90 in1012.5 mb 0.00 in0.0 mm 0.00 in/hr0.0 mm/hr 0.00 in0.0 mm
12:45 PM 30.8°F-0.7°C 26.6°F-3.0°C 84% 10.0 mph SW16.1 kmh SW 10.0 mph16.1 kmh 29.88 in1011.9 mb 0.00 in0.0 mm 0.00 in/hr0.0 mm/hr 0.00 in0.0 mm
01:01 PM 31.2°F-0.4°C 26.9°F-2.8°C 84% 8.0 mph SW12.9 kmh SW 11.0 mph17.7 kmh 29.88 in1011.9 mb 0.00 in0.0 mm 0.00 in/hr0.0 mm/hr 0.00 in0.0 mm
01:15 PM 31.4°F-0.3°C 27.1°F-2.7°C 84% 7.0 mph SSW11.3 kmh SSW 10.0 mph16.1 kmh 29.87 in1011.5 mb 0.00 in0.0 mm 0.00 in/hr0.0 mm/hr 0.00 in0.0 mm
01:31 PM 31.6°F-0.2°C 27.0°F-2.8°C 83% 6.0 mph SW9.7 kmh SW 9.0 mph14.5 kmh 29.86 in1011.2 mb 0.00 in0.0 mm 0.00 in/hr0.0 mm/hr 0.00 in0.0 mm
01:45 PM 31.5°F-0.3°C 27.2°F-2.7°C 84% 6.0 mph SSW9.7 kmh SSW 7.0 mph11.3 kmh 29.85 in1010.8 mb 0.00 in0.0 mm 0.00 in/hr0.0 mm/hr 0.00 in0.0 mm
02:01 PM 31.8°F-0.1°C 27.5°F-2.5°C 84% 4.0 mph SSW6.4 kmh SSW 7.0 mph11.3 kmh 29.84 in1010.5 mb 0.00 in0.0 mm 0.00 in/hr0.0 mm/hr 0.00 in0.0 mm
02:15 PM 31.7°F-0.2°C 27.7°F-2.4°C 85% 5.0 mph S8.0 kmh S 7.0 mph11.3 kmh 29.84 in1010.5 mb 0.00 in0.0 mm 0.00 in/hr0.0 mm/hr 0.00 in0.0 mm
02:31 PM 31.3°F-0.4°C 27.3°F-2.6°C 85% 5.0 mph SSW8.0 kmh SSW 7.0 mph11.3 kmh 29.84 in1010.5 mb 0.00 in0.0 mm 0.00 in/hr0.0 mm/hr 0.00 in0.0 mm
02:45 PM 31.5°F-0.3°C 27.8°F-2.3°C 86% 3.0 mph S4.8 kmh S 5.0 mph8.0 kmh 29.84 in1010.5 mb 0.00 in0.0 mm 0.00 in/hr0.0 mm/hr 0.00 in0.0 mm
03:01 PM 31.7°F-0.2°C 28.0°F-2.2°C 86% 4.0 mph S6.4 kmh S 6.0 mph9.7 kmh 29.84 in1010.5 mb 0.00 in0.0 mm 0.00 in/hr0.0 mm/hr 0.00 in0.0 mm
03:15 PM 31.6°F-0.2°C 28.2°F-2.1°C 87% 5.0 mph S8.0 kmh S 8.0 mph12.9 kmh 29.84 in1010.5 mb 0.00 in0.0 mm 0.00 in/hr0.0 mm/hr 0.00 in0.0 mm
03:31 PM 31.5°F-0.3°C 28.4°F-2.0°C 88% 4.0 mph S6.4 kmh S 8.0 mph12.9 kmh 29.84 in1010.5 mb 0.00 in0.0 mm 0.00 in/hr0.0 mm/hr 0.00 in0.0 mm
03:45 PM 31.7°F-0.2°C 28.3°F-2.1°C 87% 5.0 mph S8.0 kmh S 6.0 mph9.7 kmh 29.84 in1010.5 mb 0.00 in0.0 mm 0.00 in/hr0.0 mm/hr 0.00 in0.0 mm
04:01 PM 31.9°F-0.1°C 28.5°F-1.9°C 87% 4.0 mph S6.4 kmh S 7.0 mph11.3 kmh 29.85 in1010.8 mb 0.00 in0.0 mm 0.00 in/hr0.0 mm/hr 0.00 in0.0 mm
04:15 PM 32.1°F0.1°C 28.7°F-1.8°C 87% 5.0 mph S8.0 kmh S 7.0 mph11.3 kmh 29.85 in1010.8 mb 0.00 in0.0 mm 0.00 in/hr0.0 mm/hr 0.00 in0.0 mm
04:31 PM 32.3°F0.2°C 29.2°F-1.6°C 88% 1.0 mph S1.6 kmh S 3.0 mph4.8 kmh 29.85 in1010.8 mb 0.00 in0.0 mm 0.00 in/hr0.0 mm/hr 0.00 in0.0 mm
04:45 PM 32.3°F0.2°C 29.2°F-1.6°C 88% 1.0 mph S1.6 kmh S 2.0 mph3.2 kmh 29.85 in1010.8 mb 0.00 in0.0 mm 0.00 in/hr0.0 mm/hr 0.00 in0.0 mm
05:01 PM 32.6°F0.3°C 29.7°F-1.3°C 89% 1.0 mph S1.6 kmh S 2.0 mph3.2 kmh 29.85 in1010.8 mb 0.00 in0.0 mm 0.00 in/hr0.0 mm/hr 0.00 in0.0 mm
05:15 PM 32.6°F0.3°C 30.0°F-1.1°C 90% 1.0 mph SSE1.6 kmh SSE 2.0 mph3.2 kmh 29.85 in1010.8 mb 0.00 in0.0 mm 0.00 in/hr0.0 mm/hr 0.00 in0.0 mm
05:30 PM 32.7°F0.4°C 30.1°F-1.1°C 90% 2.0 mph SSE3.2 kmh SSE 2.0 mph3.2 kmh 29.84 in1010.5 mb 0.00 in0.0 mm 0.00 in/hr0.0 mm/hr 0.00 in0.0 mm
05:45 PM 32.6°F0.3°C 30.0°F-1.1°C 90% Calm Calm 1.0 mph1.6 kmh 29.85 in1010.8 mb 0.00 in0.0 mm 0.00 in/hr0.0 mm/hr 0.00 in0.0 mm
06:01 PM 32.6°F0.3°C 29.7°F-1.3°C 89% 1.0 mph SSE1.6 kmh SSE 2.0 mph3.2 kmh 29.85 in1010.8 mb 0.00 in0.0 mm 0.00 in/hr0.0 mm/hr 0.00 in0.0 mm
06:15 PM 32.6°F0.3°C 29.7°F-1.3°C 89% 1.0 mph SSE1.6 kmh SSE 3.0 mph4.8 kmh 29.84 in1010.5 mb 0.00 in0.0 mm 0.00 in/hr0.0 mm/hr 0.00 in0.0 mm
06:30 PM 32.2°F0.1°C 29.3°F-1.5°C 89% 2.0 mph SE3.2 kmh SE 3.0 mph4.8 kmh 29.84 in1010.5 mb 0.00 in0.0 mm 0.00 in/hr0.0 mm/hr 0.00 in0.0 mm
06:45 PM 32.4°F0.2°C 29.5°F-1.4°C 89% 1.0 mph SE1.6 kmh SE 3.0 mph4.8 kmh 29.85 in1010.8 mb 0.00 in0.0 mm 0.00 in/hr0.0 mm/hr 0.00 in0.0 mm
07:01 PM 32.8°F0.4°C 29.6°F-1.3°C 88% Calm Calm 1.0 mph1.6 kmh 29.84 in1010.5 mb 0.00 in0.0 mm 0.00 in/hr0.0 mm/hr 0.00 in0.0 mm
07:16 PM 33.3°F0.7°C 29.9°F-1.2°C 87% 1.0 mph SE1.6 kmh SE 2.0 mph3.2 kmh 29.84 in1010.5 mb 0.00 in0.0 mm 0.00 in/hr0.0 mm/hr 0.00 in0.0 mm
07:30 PM 33.5°F0.8°C 30.1°F-1.1°C 87% Calm Calm 1.0 mph1.6 kmh 29.85 in1010.8 mb 0.00 in0.0 mm 0.00 in/hr0.0 mm/hr 0.00 in0.0 mm
07:45 PM 34.0°F1.1°C 30.0°F-1.1°C 85% Calm Calm 1.0 mph1.6 kmh 29.84 in1010.5 mb 0.00 in0.0 mm 0.00 in/hr0.0 mm/hr 0.00 in0.0 mm
08:01 PM 33.8°F1.0°C 29.8°F-1.2°C 85% Calm Calm 2.0 mph3.2 kmh 29.85 in1010.8 mb 0.00 in0.0 mm 0.00 in/hr0.0 mm/hr 0.00 in0.0 mm
08:15 PM 33.6°F0.9°C 29.9°F-1.2°C 86% 2.0 mph N3.2 kmh N 3.0 mph4.8 kmh 29.84 in1010.5 mb 0.00 in0.0 mm 0.00 in/hr0.0 mm/hr 0.00 in0.0 mm
08:30 PM 33.9°F1.1°C 29.9°F-1.2°C 85% Calm Calm 2.0 mph3.2 kmh 29.85 in1010.8 mb 0.00 in0.0 mm 0.00 in/hr0.0 mm/hr 0.00 in0.0 mm
08:45 PM 34.4°F1.3°C 30.1°F-1.1°C 84% 1.0 mph N1.6 kmh N 1.0 mph1.6 kmh 29.85 in1010.8 mb 0.00 in0.0 mm 0.00 in/hr0.0 mm/hr 0.00 in0.0 mm
09:01 PM 34.5°F1.4°C 30.2°F-1.0°C 84% 1.0 mph N1.6 kmh N 2.0 mph3.2 kmh 29.85 in1010.8 mb 0.00 in0.0 mm 0.00 in/hr0.0 mm/hr 0.00 in0.0 mm
09:15 PM 34.5°F1.4°C 30.2°F-1.0°C 84% Calm Calm 2.0 mph3.2 kmh 29.83 in1010.2 mb 0.00 in0.0 mm 0.00 in/hr0.0 mm/hr 0.00 in0.0 mm
09:30 PM 34.2°F1.2°C 30.2°F-1.0°C 85% Calm Calm 1.0 mph1.6 kmh 29.85 in1010.8 mb 0.00 in0.0 mm 0.00 in/hr0.0 mm/hr 0.00 in0.0 mm
09:45 PM 34.3°F1.3°C 30.3°F-0.9°C 85% Calm Calm 1.0 mph1.6 kmh 29.85 in1010.8 mb 0.00 in0.0 mm 0.00 in/hr0.0 mm/hr 0.00 in0.0 mm
10:01 PM 34.6°F1.4°C 30.3°F-0.9°C 84% 1.0 mph N1.6 kmh N 1.0 mph1.6 kmh 29.84 in1010.5 mb 0.00 in0.0 mm 0.00 in/hr0.0 mm/hr 0.00 in0.0 mm
10:15 PM 34.7°F1.5°C 30.4°F-0.9°C 84% Calm Calm 1.0 mph1.6 kmh 29.85 in1010.8 mb 0.00 in0.0 mm 0.00 in/hr0.0 mm/hr 0.00 in0.0 mm
10:30 PM 34.5°F1.4°C 30.5°F-0.8°C 85% Calm Calm 2.0 mph3.2 kmh 29.84 in1010.5 mb 0.00 in0.0 mm 0.00 in/hr0.0 mm/hr 0.00 in0.0 mm
10:45 PM 34.2°F1.2°C 30.5°F-0.8°C 86% Calm Calm 1.0 mph1.6 kmh 29.85 in1010.8 mb 0.00 in0.0 mm 0.00 in/hr0.0 mm/hr 0.00 in0.0 mm
11:00 PM 34.0°F1.1°C 30.6°F-0.8°C 87% 1.0 mph N1.6 kmh N 1.0 mph1.6 kmh 29.84 in1010.5 mb 0.00 in0.0 mm 0.00 in/hr0.0 mm/hr 0.00 in0.0 mm
11:15 PM 34.1°F1.2°C 30.9°F-0.6°C 88% Calm Calm 1.0 mph1.6 kmh 29.84 in1010.5 mb 0.00 in0.0 mm 0.00 in/hr0.0 mm/hr 0.00 in0.0 mm
11:30 PM 34.3°F1.3°C 31.1°F-0.5°C 88% Calm Calm 1.0 mph1.6 kmh 29.84 in1010.5 mb 0.00 in0.0 mm 0.00 in/hr0.0 mm/hr 0.00 in0.0 mm
11:45 PM 34.1°F1.2°C 31.2°F-0.4°C 89% 1.0 mph N1.6 kmh N 1.0 mph1.6 kmh 29.84 in1010.5 mb 0.00 in0.0 mm 0.00 in/hr0.0 mm/hr 0.00 in0.0 mm